Time;durP1;ratioP1;P1;durP2;ratioP2;P2;SDS_P1;SDS_P2;PMS_P1;PMS_P2;Temp;Humidity;BMP_temperature;BMP_pressure;BME280_temperature;BME280_humidity;BME280_pressure;Samples;Min_cycle;Max_cycle;Signal;HPM_P1;HPM_P2
2023/04/18 00:00:30;;;;;;;15.43;12.43;;;8.30;87.00;;;;;;5073443;28;20033;-74
2023/04/18 00:02:55;;;;;;;15.18;12.55;;;8.30;87.00;;;;;;5073430;28;20500;-74
2023/04/18 00:05:21;;;;;;;17.30;12.40;;;8.20;87.10;;;;;;5073384;28;20021;-74
2023/04/18 00:07:47;;;;;;;15.65;13.00;;;8.20;87.00;;;;;;5073047;28;20112;-74
2023/04/18 00:10:13;;;;;;;16.02;13.35;;;8.10;87.10;;;;;;5073478;28;20366;-73
2023/04/18 00:12:38;;;;;;;16.15;13.02;;;8.10;87.40;;;;;;5073348;28;20119;-73
2023/04/18 00:15:07;;;;;;;18.20;14.32;;;8.00;87.60;;;;;;5073312;28;20103;-73
2023/04/18 00:17:34;;;;;;;17.67;13.73;;;8.00;87.70;;;;;;5073369;28;20071;-73
2023/04/18 00:20:05;;;;;;;17.23;14.02;;;8.00;87.80;;;;;;5073289;28;20017;-73
2023/04/18 00:22:32;;;;;;;20.38;15.13;;;8.00;87.70;;;;;;5073347;28;20020;-73
2023/04/18 00:24:58;;;;;;;19.92;13.82;;;7.90;87.70;;;;;;5073414;28;20063;-73
2023/04/18 00:27:24;;;;;;;18.50;15.05;;;7.90;87.90;;;;;;5073210;28;20079;-74
2023/04/18 00:29:49;;;;;;;19.33;15.27;;;7.90;87.90;;;;;;5073337;28;20479;-75
2023/04/18 00:32:16;;;;;;;20.30;16.40;;;8.00;87.80;;;;;;5072891;28;20163;-75
2023/04/18 00:34:41;;;;;;;21.23;16.58;;;7.80;87.70;;;;;;5072852;28;20524;-76
2023/04/18 00:37:07;;;;;;;25.45;17.63;;;7.90;88.20;;;;;;5073022;28;20025;-75
2023/04/18 00:39:35;;;;;;;26.48;18.75;;;7.80;88.10;;;;;;5072825;28;20017;-75
2023/04/18 00:42:02;;;;;;;24.50;17.80;;;7.80;88.00;;;;;;5072941;28;20033;-75
2023/04/18 00:44:28;;;;;;;22.98;18.52;;;7.80;88.10;;;;;;5072678;28;20032;-74
2023/04/18 00:46:54;;;;;;;22.38;17.95;;;7.70;88.50;;;;;;5072949;28;20384;-74
2023/04/18 00:49:20;;;;;;;25.80;18.33;;;7.70;88.80;;;;;;5072912;28;20020;-74
2023/04/18 00:51:46;;;;;;;24.27;18.33;;;7.70;88.90;;;;;;5072788;28;20077;-74
2023/04/18 00:54:12;;;;;;;27.20;19.42;;;7.70;88.80;;;;;;5072960;28;20059;-74
2023/04/18 00:56:38;;;;;;;25.00;18.63;;;7.80;88.40;;;;;;5072739;28;20024;-74
2023/04/18 00:59:06;;;;;;;26.65;19.23;;;7.80;88.30;;;;;;5072611;28;20108;-74
2023/04/18 01:01:32;;;;;;;24.83;18.83;;;7.70;88.20;;;;;;5071909;28;20040;-75
2023/04/18 01:03:58;;;;;;;25.42;19.27;;;7.80;88.20;;;;;;5072389;28;20016;-74
2023/04/18 01:06:25;;;;;;;25.67;19.52;;;7.70;88.30;;;;;;5072777;28;20040;-73
2023/04/18 01:08:52;;;;;;;26.65;20.77;;;7.70;88.60;;;;;;5072861;28;20074;-74
2023/04/18 01:11:18;;;;;;;26.38;20.08;;;7.60;88.60;;;;;;5072884;28;20025;-73
2023/04/18 01:14:00;;;;;;;23.30;18.35;;;7.70;88.70;;;;;;5075646;28;20036;-73
2023/04/18 01:16:33;;;;;;;27.83;21.08;;;7.70;88.90;;;;;;5076839;28;20016;-74
2023/04/18 01:19:00;;;;;;;25.27;20.25;;;7.70;88.70;;;;;;5076809;28;20032;-74
2023/04/18 01:21:29;;;;;;;26.00;20.23;;;7.60;88.90;;;;;;5076479;28;20032;-74
2023/04/18 01:24:01;;;;;;;29.00;22.08;;;7.60;89.00;;;;;;5076713;28;20026;-75
2023/04/18 01:26:28;;;;;;;30.20;22.48;;;7.60;88.90;;;;;;5076661;28;20020;-75
2023/04/18 01:28:54;;;;;;;28.73;21.45;;;7.50;89.20;;;;;;5076769;28;20177;-75
2023/04/18 01:31:20;;;;;;;27.38;20.17;;;7.60;89.40;;;;;;5076632;28;20456;-75
2023/04/18 01:33:45;;;;;;;28.88;21.92;;;7.60;89.40;;;;;;5076721;28;20025;-75
2023/04/18 01:36:11;;;;;;;29.15;22.38;;;7.70;89.40;;;;;;5077056;28;20492;-75
2023/04/18 01:38:36;;;;;;;30.70;22.05;;;7.60;89.00;;;;;;5077262;28;20025;-74
2023/04/18 01:41:02;;;;;;;32.55;23.00;;;7.50;89.40;;;;;;5077001;28;20074;-75
2023/04/18 01:43:28;;;;;;;31.52;22.65;;;7.50;89.30;;;;;;5076828;28;20074;-75
2023/04/18 01:45:53;;;;;;;29.88;22.50;;;7.50;89.40;;;;;;5082928;28;20032;-75
2023/04/18 01:48:19;;;;;;;31.88;22.95;;;7.50;89.60;;;;;;5090985;28;20170;-75
2023/04/18 01:50:44;;;;;;;30.15;22.40;;;7.50;89.60;;;;;;5088454;28;20077;-75
2023/04/18 01:53:10;;;;;;;30.27;23.38;;;7.50;89.50;;;;;;5089168;28;20036;-74
2023/04/18 01:55:35;;;;;;;29.85;22.02;;;7.60;89.20;;;;;;5087488;28;20016;-73
2023/04/18 01:58:01;;;;;;;33.15;22.42;;;7.60;89.20;;;;;;5086324;28;20429;-74
2023/04/18 02:00:26;;;;;;;32.83;23.48;;;7.70;89.20;;;;;;5090489;28;20035;-75
2023/04/18 02:02:52;;;;;;;33.05;24.30;;;7.60;88.90;;;;;;5081680;28;20025;-73
2023/04/18 02:05:18;;;;;;;33.72;24.60;;;7.60;88.90;;;;;;5076244;28;20060;-75
2023/04/18 02:07:44;;;;;;;30.73;22.40;;;7.50;89.10;;;;;;5075946;28;20469;-74
2023/04/18 02:10:10;;;;;;;32.25;22.98;;;7.50;89.20;;;;;;5075955;28;20430;-73
2023/04/18 02:12:35;;;;;;;34.00;24.63;;;7.50;89.10;;;;;;5075422;28;20037;-74
2023/04/18 02:15:01;;;;;;;29.58;22.00;;;7.50;89.10;;;;;;5075640;28;20099;-73
2023/04/18 02:17:27;;;;;;;31.92;24.60;;;7.60;89.10;;;;;;5075443;28;20086;-74
2023/04/18 02:19:53;;;;;;;31.48;22.95;;;7.60;88.90;;;;;;5075706;28;20020;-74
2023/04/18 02:22:18;;;;;;;34.50;24.30;;;7.70;88.80;;;;;;5075512;28;20109;-74
2023/04/18 02:24:45;;;;;;;30.80;23.73;;;7.60;88.40;;;;;;5074371;28;20029;-75
2023/04/18 02:27:10;;;;;;;29.92;22.23;;;7.60;88.50;;;;;;5075416;28;20082;-75
2023/04/18 02:29:36;;;;;;;33.00;24.63;;;7.60;88.70;;;;;;5075419;28;20021;-74
2023/04/18 02:32:02;;;;;;;34.55;24.67;;;7.60;88.50;;;;;;5075318;28;20060;-75
2023/04/18 02:34:27;;;;;;;38.33;26.38;;;7.60;88.60;;;;;;5075049;28;20457;-74
2023/04/18 02:36:53;;;;;;;38.50;27.60;;;7.50;88.70;;;;;;5075411;28;20071;-74
2023/04/18 02:39:19;;;;;;;36.60;27.60;;;7.50;88.90;;;;;;5075338;28;20056;-75
2023/04/18 02:41:45;;;;;;;37.63;27.65;;;7.40;89.40;;;;;;5073890;28;20043;-75
2023/04/18 02:44:11;;;;;;;37.22;27.23;;;7.40;89.50;;;;;;5075173;28;20088;-75
2023/04/18 02:46:36;;;;;;;42.03;28.17;;;7.40;89.50;;;;;;5075046;28;20483;-75
2023/04/18 02:49:02;;;;;;;35.15;26.02;;;7.40;89.60;;;;;;5074962;28;20025;-74
2023/04/18 02:51:27;;;;;;;40.50;27.17;;;7.40;89.90;;;;;;5075181;28;20028;-74
2023/04/18 02:53:54;;;;;;;39.50;28.90;;;7.40;89.80;;;;;;5074827;28;20044;-74
2023/04/18 02:56:20;;;;;;;37.88;27.48;;;7.40;89.60;;;;;;5074750;28;20024;-74
2023/04/18 02:58:46;;;;;;;39.20;28.38;;;7.50;89.70;;;;;;5073542;28;20029;-74
2023/04/18 03:01:12;;;;;;;38.05;28.00;;;7.40;89.40;;;;;;5075375;28;20021;-73
2023/04/18 03:03:38;;;;;;;38.58;27.17;;;7.40;89.40;;;;;;5075084;28;20107;-73
2023/04/18 03:06:03;;;;;;;40.35;28.27;;;7.40;89.50;;;;;;5078360;28;20056;-74
2023/04/18 03:08:29;;;;;;;36.08;27.05;;;7.30;89.80;;;;;;5074877;28;20029;-74
2023/04/18 03:10:54;;;;;;;36.65;26.75;;;7.40;89.80;;;;;;5074672;28;20024;-74
2023/04/18 03:13:20;;;;;;;34.40;26.13;;;7.40;89.80;;;;;;5074545;28;20059;-74
2023/04/18 03:15:46;;;;;;;36.58;26.48;;;7.40;89.50;;;;;;5073411;28;20035;-74
2023/04/18 03:18:12;;;;;;;34.97;26.27;;;7.50;90.30;;;;;;5074524;28;20028;-74
2023/04/18 03:20:37;;;;;;;35.28;26.75;;;7.50;89.30;;;;;;5074399;28;20021;-73
2023/04/18 03:23:03;;;;;;;38.03;27.77;;;7.50;89.00;;;;;;5074365;28;20209;-74
2023/04/18 03:25:29;;;;;;;37.47;27.77;;;7.50;88.80;;;;;;5073801;28;20086;-74
2023/04/18 03:27:55;;;;;;;37.67;28.15;;;7.50;88.80;;;;;;5074210;28;20096;-74
2023/04/18 03:30:20;;;;;;;33.47;25.67;;;7.50;89.00;;;;;;5074264;28;20029;-74
2023/04/18 03:32:47;;;;;;;37.65;27.25;;;7.50;90.00;;;;;;5074067;28;20064;-74
2023/04/18 03:35:14;;;;;;;34.28;25.42;;;7.40;89.00;;;;;;5073390;28;20074;-74
2023/04/18 03:37:39;;;;;;;35.90;25.58;;;7.50;89.10;;;;;;5074115;28;20033;-74
2023/04/18 03:40:05;;;;;;;37.83;27.85;;;7.50;89.00;;;;;;5073834;28;20016;-74
2023/04/18 03:42:31;;;;;;;36.65;26.75;;;7.50;88.50;;;;;;5073691;28;20394;-74
2023/04/18 03:44:57;;;;;;;34.45;25.42;;;7.50;89.50;;;;;;5073861;28;20032;-74
2023/04/18 03:47:22;;;;;;;39.20;27.58;;;7.60;88.80;;;;;;5074050;28;20047;-74
2023/04/18 03:49:48;;;;;;;36.38;26.60;;;7.50;89.30;;;;;;5073629;28;20028;-74
2023/04/18 03:52:14;;;;;;;38.92;27.77;;;7.50;88.70;;;;;;5073514;28;20190;-75
2023/04/18 03:54:40;;;;;;;39.08;26.85;;;7.50;88.50;;;;;;5073937;28;20024;-73
2023/04/18 03:57:06;;;;;;;33.10;24.80;;;7.50;88.50;;;;;;5073704;28;20108;-73
2023/04/18 03:59:31;;;;;;;35.72;25.10;;;7.50;88.50;;;;;;5073616;28;20460;-73
2023/04/18 04:01:57;;;;;;;33.58;25.13;;;7.50;88.30;;;;;;5072287;28;20020;-73
2023/04/18 04:04:22;;;;;;;37.67;25.48;;;7.40;88.30;;;;;;5073406;28;20059;-73
2023/04/18 04:06:48;;;;;;;38.70;28.05;;;7.50;89.40;;;;;;5073546;28;20021;-73
2023/04/18 04:09:14;;;;;;;37.63;26.30;;;7.40;88.60;;;;;;5073168;28;20036;-73
2023/04/18 04:11:39;;;;;;;33.88;25.70;;;7.40;88.70;;;;;;5073328;28;20120;-73
2023/04/18 04:14:05;;;;;;;31.30;23.60;;;7.40;88.60;;;;;;5073289;28;20032;-73
2023/04/18 04:16:30;;;;;;;32.30;24.42;;;7.40;88.50;;;;;;5073355;28;20443;-74
2023/04/18 04:18:56;;;;;;;34.03;25.00;;;7.50;88.30;;;;;;5073125;28;20017;-74
2023/04/18 04:21:22;;;;;;;37.60;25.50;;;7.40;88.30;;;;;;5073255;28;20024;-74
2023/04/18 04:23:47;;;;;;;38.03;26.40;;;7.30;88.50;;;;;;5073135;28;20024;-74
2023/04/18 04:26:16;;;;;;;38.05;26.52;;;7.30;88.80;;;;;;5072941;28;20028;-74
2023/04/18 04:28:45;;;;;;;37.70;26.42;;;7.40;88.80;;;;;;5073127;28;20028;-74
2023/04/18 04:31:10;;;;;;;35.78;26.35;;;7.40;88.60;;;;;;5071890;28;20481;-73
2023/04/18 04:33:37;;;;;;;37.22;27.08;;;7.40;88.50;;;;;;5073166;28;20078;-74
2023/04/18 04:36:05;;;;;;;38.08;28.15;;;7.30;88.60;;;;;;5073344;28;20404;-74
2023/04/18 04:38:31;;;;;;;38.60;26.17;;;7.30;89.00;;;;;;5073060;28;20028;-74
2023/04/18 04:40:57;;;;;;;36.47;26.33;;;7.20;89.20;;;;;;5073087;28;20020;-73
2023/04/18 04:43:23;;;;;;;35.75;25.25;;;7.20;89.40;;;;;;5072943;28;20032;-73
2023/04/18 04:45:51;;;;;;;38.70;27.13;;;7.20;89.30;;;;;;5072312;28;20020;-73
2023/04/18 04:48:17;;;;;;;34.80;25.15;;;7.30;89.40;;;;;;5072585;28;20078;-74
2023/04/18 04:50:51;;;;;;;39.28;24.52;;;7.40;89.30;;;;;;5072893;28;20019;-75
2023/04/18 04:53:17;;;;;;;35.50;25.80;;;7.40;89.00;;;;;;5072409;28;20115;-74
2023/04/18 04:55:43;;;;;;;34.75;24.35;;;7.50;88.80;;;;;;5072688;28;20096;-74
2023/04/18 04:58:09;;;;;;;35.65;24.05;;;7.50;88.40;;;;;;5072819;28;20376;-74
2023/04/18 05:00:34;;;;;;;32.40;23.15;;;7.60;88.20;;;;;;5072626;28;20035;-74
2023/04/18 05:03:00;;;;;;;30.80;22.85;;;7.50;88.10;;;;;;5072706;28;20392;-74
2023/04/18 05:05:26;;;;;;;31.80;22.23;;;7.60;88.30;;;;;;5071348;28;20105;-74
2023/04/18 05:07:53;;;;;;;30.33;22.55;;;7.60;88.10;;;;;;5072770;28;20032;-74
2023/04/18 05:10:18;;;;;;;30.80;22.80;;;7.70;88.10;;;;;;5072835;28;20021;-75
2023/04/18 05:12:44;;;;;;;33.97;24.08;;;7.80;87.80;;;;;;5072409;28;20060;-74
2023/04/18 05:15:10;;;;;;;29.85;22.42;;;7.80;87.10;;;;;;5072733;28;20471;-76
2023/04/18 05:17:35;;;;;;;29.85;22.33;;;7.80;87.10;;;;;;5072298;28;20024;-75
2023/04/18 05:20:01;;;;;;;32.38;22.10;;;7.80;86.80;;;;;;5072443;28;20021;-76
2023/04/18 05:22:26;;;;;;;30.02;22.58;;;7.80;86.80;;;;;;5071147;28;20033;-74
2023/04/18 05:24:52;;;;;;;32.40;24.15;;;7.70;86.80;;;;;;5072527;28;20024;-74
2023/04/18 05:27:17;;;;;;;28.45;21.55;;;7.70;86.90;;;;;;5072377;28;20314;-74
2023/04/18 05:29:43;;;;;;;33.78;23.85;;;7.60;87.00;;;;;;5071902;28;20039;-75
2023/04/18 05:32:09;;;;;;;31.88;22.58;;;7.60;87.10;;;;;;5072217;28;20036;-75
2023/04/18 05:34:37;;;;;;;32.95;23.77;;;7.60;87.10;;;;;;5071938;28;20056;-76
2023/04/18 05:37:05;;;;;;;30.63;22.65;;;7.60;88.10;;;;;;5072542;28;20040;-76
2023/04/18 05:39:31;;;;;;;32.00;23.50;;;7.70;87.50;;;;;;5072348;28;20028;-74
2023/04/18 05:41:57;;;;;;;32.00;23.45;;;7.60;87.20;;;;;;5072248;28;20017;-75
2023/04/18 05:44:23;;;;;;;31.27;23.73;;;7.60;87.10;;;;;;5072227;28;20099;-75
2023/04/18 05:46:50;;;;;;;35.55;23.92;;;7.50;87.40;;;;;;5070902;28;20024;-74
2023/04/18 05:49:17;;;;;;;31.35;22.15;;;7.50;87.80;;;;;;5072382;28;20067;-75
2023/04/18 05:51:43;;;;;;;29.85;23.20;;;7.40;87.60;;;;;;5072222;28;20060;-74
2023/04/18 05:54:09;;;;;;;32.83;23.30;;;7.50;88.00;;;;;;5072337;28;20028;-75
2023/04/18 05:56:34;;;;;;;34.38;24.48;;;7.50;88.10;;;;;;5072302;28;20099;-75
2023/04/18 05:59:00;;;;;;;32.00;22.77;;;7.50;87.90;;;;;;5075341;28;20067;-74
2023/04/18 06:01:26;;;;;;;33.05;23.17;;;7.40;87.80;;;;;;5077077;28;20476;-75
2023/04/18 06:03:53;;;;;;;31.35;22.35;;;7.50;87.90;;;;;;5076173;28;20040;-74
2023/04/18 06:06:19;;;;;;;32.10;23.30;;;7.50;88.10;;;;;;5075951;28;20027;-75
2023/04/18 06:08:45;;;;;;;30.50;23.20;;;7.40;87.90;;;;;;5075805;28;20415;-74
2023/04/18 06:11:10;;;;;;;33.65;22.80;;;7.40;87.90;;;;;;5075876;28;20389;-75
2023/04/18 06:13:36;;;;;;;35.25;24.83;;;7.40;88.20;;;;;;5075711;28;20090;-74
2023/04/18 06:16:02;;;;;;;29.48;20.20;;;7.40;88.20;;;;;;5074371;28;20036;-75
2023/04/18 06:18:28;;;;;;;32.00;23.23;;;7.50;88.40;;;;;;5075636;28;20437;-75
2023/04/18 06:20:54;;;;;;;32.35;21.05;;;7.70;89.60;;;;;;5075575;28;20028;-75
2023/04/18 06:23:19;;;;;;;29.25;20.08;;;7.90;88.30;;;;;;5074045;28;20469;-75
2023/04/18 06:25:45;;;;;;;29.10;21.00;;;8.10;87.70;;;;;;5075497;28;20094;-75
2023/04/18 06:28:10;;;;;;;27.25;19.13;;;8.50;87.80;;;;;;5075432;28;20028;-74
2023/04/18 06:30:36;;;;;;;27.30;20.15;;;8.60;85.40;;;;;;5075354;28;20016;-76
2023/04/18 06:33:02;;;;;;;29.70;18.88;;;8.70;83.60;;;;;;5075273;28;20041;-76
2023/04/18 06:35:30;;;;;;;25.67;17.80;;;8.90;86.00;;;;;;5073801;28;20051;-75
2023/04/18 06:37:55;;;;;;;22.55;16.58;;;9.30;83.70;;;;;;5074900;28;20470;-76
2023/04/18 06:40:21;;;;;;;33.50;17.55;;;9.50;82.10;;;;;;5073990;28;20107;-76
2023/04/18 06:42:47;;;;;;;49.40;32.92;;;9.80;80.80;;;;;;5075141;28;20020;-75
2023/04/18 06:45:12;;;;;;;52.22;35.90;;;10.00;79.20;;;;;;5075319;28;20029;-75
2023/04/18 06:47:39;;;;;;;31.83;21.73;;;10.20;77.60;;;;;;5075169;28;20413;-75
2023/04/18 06:50:08;;;;;;;23.63;17.02;;;10.40;76.90;;;;;;5075147;28;20020;-75
2023/04/18 06:52:39;;;;;;;23.88;17.48;;;10.30;75.60;;;;;;5074861;28;20048;-76
2023/04/18 06:55:06;;;;;;;22.90;15.73;;;10.20;75.60;;;;;;5074763;28;20024;-75
2023/04/18 06:57:31;;;;;;;21.10;15.68;;;10.00;76.50;;;;;;5074854;28;20024;-75
2023/04/18 06:59:57;;;;;;;20.75;16.42;;;9.80;77.50;;;;;;5073555;28;20385;-75
2023/04/18 07:02:23;;;;;;;23.23;16.63;;;9.60;78.50;;;;;;5074414;28;20032;-75
2023/04/18 07:04:49;;;;;;;22.33;16.77;;;9.50;78.70;;;;;;5073415;28;20380;-76
2023/04/18 07:07:14;;;;;;;29.15;18.85;;;9.40;79.10;;;;;;5074651;28;20033;-75
2023/04/18 07:09:40;;;;;;;25.15;18.08;;;9.30;80.00;;;;;;5073761;28;20021;-75
2023/04/18 07:12:06;;;;;;;23.65;16.38;;;9.20;80.60;;;;;;5074438;28;20032;-75
2023/04/18 07:14:31;;;;;;;23.63;17.30;;;9.10;80.50;;;;;;5074476;28;20052;-75
2023/04/18 07:16:57;;;;;;;24.10;17.38;;;9.00;81.10;;;;;;5074093;28;20022;-75
2023/04/18 07:19:23;;;;;;;24.75;19.25;;;9.00;81.10;;;;;;5074269;28;20021;-75
2023/04/18 07:21:51;;;;;;;26.38;19.50;;;9.00;81.40;;;;;;5074386;28;20426;-75
2023/04/18 07:24:17;;;;;;;26.10;20.08;;;8.90;81.50;;;;;;5074345;28;20028;-76
2023/04/18 07:26:42;;;;;;;25.17;20.00;;;8.80;81.70;;;;;;5074149;28;20069;-76
2023/04/18 07:29:11;;;;;;;27.95;20.02;;;8.80;82.20;;;;;;5072781;28;20032;-77
2023/04/18 07:31:36;;;;;;;32.45;22.63;;;8.80;82.00;;;;;;5073776;28;20082;-76
2023/04/18 07:34:02;;;;;;;34.60;22.38;;;8.70;82.90;;;;;;5073820;28;20028;-76
2023/04/18 07:36:27;;;;;;;33.83;24.60;;;8.60;83.20;;;;;;5073787;28;20408;-76
2023/04/18 07:38:53;;;;;;;31.55;22.80;;;8.70;83.20;;;;;;5074031;28;20021;-76
2023/04/18 07:41:19;;;;;;;31.33;22.50;;;8.50;83.30;;;;;;5073822;28;20456;-76
2023/04/18 07:43:44;;;;;;;30.52;22.60;;;8.40;84.20;;;;;;5073839;28;20089;-76
2023/04/18 07:46:10;;;;;;;33.05;22.40;;;8.40;84.40;;;;;;5072445;28;20021;-76
2023/04/18 07:48:35;;;;;;;28.40;21.50;;;8.40;84.80;;;;;;5073884;28;20024;-76
2023/04/18 07:51:02;;;;;;;29.45;22.50;;;8.40;84.70;;;;;;5072325;28;20523;-76
2023/04/18 07:53:28;;;;;;;28.48;22.20;;;8.50;84.50;;;;;;5073722;28;20028;-76
2023/04/18 07:55:54;;;;;;;28.60;21.35;;;8.50;85.20;;;;;;5073662;28;20050;-77
2023/04/18 07:58:20;;;;;;;29.38;22.58;;;8.50;84.00;;;;;;5073613;28;20503;-76
2023/04/18 08:00:45;;;;;;;29.35;23.02;;;8.30;84.20;;;;;;5073534;28;20025;-75
2023/04/18 08:03:11;;;;;;;27.52;22.17;;;8.20;84.70;;;;;;5074023;28;20096;-76
2023/04/18 08:05:38;;;;;;;30.15;22.40;;;8.30;84.90;;;;;;5073687;28;20055;-76
2023/04/18 08:08:06;;;;;;;31.30;22.90;;;8.20;85.20;;;;;;5073344;28;20030;-78
2023/04/18 08:10:32;;;;;;;32.10;24.63;;;8.10;85.50;;;;;;5073594;28;20024;-76
2023/04/18 08:12:57;;;;;;;32.67;24.33;;;8.20;85.40;;;;;;5073350;28;20115;-80
2023/04/18 08:15:23;;;;;;;31.30;22.55;;;8.10;85.90;;;;;;5073416;28;20032;-79
2023/04/18 08:17:50;;;;;;;31.90;23.75;;;8.00;86.00;;;;;;5073350;28;20085;-77
2023/04/18 08:20:15;;;;;;;30.17;21.20;;;8.00;86.30;;;;;;5073329;28;20020;-79
2023/04/18 08:22:41;;;;;;;28.90;21.20;;;8.30;86.70;;;;;;5073467;28;20074;-77
2023/04/18 08:25:07;;;;;;;30.13;21.92;;;8.40;85.90;;;;;;5073455;28;20102;-78
2023/04/18 08:27:33;;;;;;;30.02;21.60;;;8.40;84.70;;;;;;5073377;28;20032;-80
2023/04/18 08:29:59;;;;;;;37.15;23.60;;;8.50;84.60;;;;;;5073397;28;20017;-80
2023/04/18 08:32:24;;;;;;;39.60;28.00;;;8.50;84.40;;;;;;5073132;28;20055;-77
2023/04/18 08:34:50;;;;;;;31.98;23.75;;;8.60;84.20;;;;;;5081376;28;20373;-78
2023/04/18 08:37:16;;;;;;;28.35;22.10;;;8.70;84.00;;;;;;5080308;28;20032;-75
2023/04/18 08:39:43;;;;;;;25.50;20.30;;;8.60;83.30;;;;;;5079063;28;20511;-78
2023/04/18 08:42:10;;;;;;;32.38;22.77;;;8.70;83.20;;;;;;5084504;28;20044;-77
2023/04/18 08:44:36;;;;;;;33.50;22.80;;;8.70;82.90;;;;;;5081459;28;20055;-78
2023/04/18 08:47:02;;;;;;;30.50;21.00;;;8.80;83.20;;;;;;5089252;28;20027;-77
2023/04/18 08:49:30;;;;;;;27.80;18.65;;;8.80;83.40;;;;;;5082866;28;20099;-78
2023/04/18 08:51:58;;;;;;;30.00;20.75;;;8.90;83.50;;;;;;5093958;28;20032;-79
2023/04/18 08:54:24;;;;;;;31.10;22.80;;;8.90;83.00;;;;;;5093092;28;20020;-78
2023/04/18 08:57:07;;;;;;;33.20;22.08;;;9.00;82.30;;;;;;5093179;28;20028;-79
2023/04/18 08:59:34;;;;;;;29.05;20.38;;;9.10;82.40;;;;;;5093020;28;20095;-78
2023/04/18 09:02:01;;;;;;;26.13;20.73;;;9.10;81.80;;;;;;5092907;28;20024;-77
2023/04/18 09:04:38;;;;;;;25.15;19.35;;;9.20;81.40;;;;;;5092868;28;20380;-78
2023/04/18 09:07:08;;;;;;;27.75;19.85;;;9.30;80.00;;;;;;5092668;28;20021;-79
2023/04/18 09:09:45;;;;;;;26.05;20.27;;;9.30;78.20;;;;;;5092821;28;20064;-77
2023/04/18 09:12:16;;;;;;;24.80;19.02;;;9.50;77.60;;;;;;5092459;28;20081;-77
2023/04/18 09:14:47;;;;;;;26.88;20.25;;;9.60;77.20;;;;;;5092993;28;20024;-78
2023/04/18 09:17:17;;;;;;;25.70;20.83;;;9.70;76.60;;;;;;5092724;28;20077;-79
2023/04/18 09:19:47;;;;;;;23.80;19.30;;;9.70;76.80;;;;;;5086164;28;20476;-76
2023/04/18 09:22:13;;;;;;;26.17;20.98;;;9.70;75.80;;;;;;5081801;28;20024;-76
2023/04/18 09:24:49;;;;;;;27.00;20.98;;;9.80;75.90;;;;;;5078271;28;20020;-76
2023/04/18 09:27:14;;;;;;;26.00;20.10;;;9.80;75.80;;;;;;5076540;28;20033;-76
2023/04/18 09:29:45;;;;;;;28.70;19.98;;;9.80;75.50;;;;;;5080337;28;20381;-79
2023/04/18 09:32:19;;;;;;;27.38;19.73;;;9.90;75.30;;;;;;5052129;28;20089;-78
2023/04/18 09:34:45;;;;;;;26.10;19.13;;;9.90;75.40;;;;;;5054457;28;20557;-77
2023/04/18 09:37:12;;;;;;;22.70;17.65;;;9.90;74.90;;;;;;5055327;28;20107;-76
2023/04/18 09:39:41;;;;;;;28.42;19.75;;;10.00;74.40;;;;;;5056093;28;20480;-76
2023/04/18 09:42:07;;;;;;;24.45;18.90;;;9.90;74.50;;;;;;5056369;28;20162;-75
2023/04/18 09:44:33;;;;;;;25.80;20.08;;;10.00;74.50;;;;;;5055738;28;20110;-75
2023/04/18 09:46:59;;;;;;;26.75;18.58;;;10.10;74.30;;;;;;5054630;28;20075;-75
2023/04/18 09:49:27;;;;;;;22.70;17.65;;;10.10;74.20;;;;;;5055994;28;20416;-75
2023/04/18 09:51:54;;;;;;;22.70;17.67;;;10.10;74.20;;;;;;5055875;28;20045;-75
2023/04/18 09:54:23;;;;;;;22.55;17.48;;;10.30;74.20;;;;;;5055490;28;20029;-75
2023/04/18 09:56:50;;;;;;;23.50;18.08;;;10.30;73.40;;;;;;5076935;28;20096;-74
2023/04/18 09:59:38;;;;;;;20.88;16.40;;;10.50;73.00;;;;;;5084092;28;20021;-78
2023/04/18 10:02:06;;;;;;;23.10;16.92;;;10.60;72.40;;;;;;5083898;28;20012;-75
2023/04/18 10:04:33;;;;;;;19.52;15.65;;;10.60;71.90;;;;;;5080912;28;20024;-75
2023/04/18 10:06:59;;;;;;;19.30;14.73;;;10.60;72.00;;;;;;5083029;28;20505;-75
2023/04/18 10:09:28;;;;;;;23.30;17.02;;;10.70;72.30;;;;;;5085280;28;20103;-74
2023/04/18 10:11:55;;;;;;;21.65;15.68;;;10.80;71.50;;;;;;5080723;28;20493;-74
2023/04/18 10:14:22;;;;;;;18.65;15.13;;;10.90;71.50;;;;;;5079892;28;20016;-74
2023/04/18 10:16:47;;;;;;;20.85;15.73;;;10.80;71.10;;;;;;5083275;28;20073;-76
2023/04/18 10:19:22;;;;;;;18.67;14.85;;;10.80;71.10;;;;;;5084473;28;20036;-75
2023/04/18 10:21:56;;;;;;;17.75;14.18;;;10.90;71.10;;;;;;5081732;28;20031;-75
2023/04/18 10:24:47;;;;;;;16.23;13.57;;;10.90;70.70;;;;;;5081408;28;20027;-75
2023/04/18 10:27:13;;;;;;;18.77;14.90;;;11.10;70.60;;;;;;5080054;28;20090;-76
2023/04/18 10:29:47;;;;;;;16.20;12.80;;;11.20;70.50;;;;;;5083681;28;20476;-78
2023/04/18 10:32:13;;;;;;;17.73;14.13;;;11.40;69.70;;;;;;5078892;28;20028;-76
2023/04/18 10:34:40;;;;;;;34.35;23.15;;;11.50;69.10;;;;;;5083662;28;20294;-76
2023/04/18 10:37:05;;;;;;;24.85;16.83;;;11.60;69.00;;;;;;5079829;28;20460;-75
2023/04/18 10:39:47;;;;;;;16.90;13.10;;;11.80;69.00;;;;;;5083178;28;20039;-76
2023/04/18 10:42:13;;;;;;;16.48;13.32;;;11.90;67.60;;;;;;5082469;28;20024;-78
2023/04/18 10:44:38;;;;;;;15.50;12.82;;;11.90;67.50;;;;;;5081063;28;20460;-76
2023/04/18 10:47:07;;;;;;;18.40;13.18;;;12.00;67.40;;;;;;5079833;28;20028;-77
2023/04/18 10:49:35;;;;;;;17.77;12.57;;;12.10;67.10;;;;;;5083176;28;20016;-77
2023/04/18 10:52:04;;;;;;;20.80;13.32;;;12.20;66.60;;;;;;5082162;28;20028;-75
2023/04/18 10:55:06;;;;;;;14.43;11.38;;;12.30;66.30;;;;;;5074853;28;20283;-76
2023/04/18 10:57:39;;;;;;;15.48;11.95;;;12.40;66.30;;;;;;5084040;28;20017;-76
2023/04/18 11:00:10;;;;;;;14.43;11.63;;;12.40;65.00;;;;;;5083844;28;20103;-78
2023/04/18 11:02:37;;;;;;;15.35;12.45;;;12.40;65.00;;;;;;5078865;28;20016;-76
2023/04/18 11:05:05;;;;;;;15.95;12.55;;;12.50;64.60;;;;;;5085035;28;20094;-75
2023/04/18 11:07:38;;;;;;;14.98;11.73;;;12.60;65.00;;;;;;5080250;28;20025;-75
2023/04/18 11:10:08;;;;;;;16.98;12.77;;;12.60;63.70;;;;;;5091428;28;20020;-77
2023/04/18 11:12:39;;;;;;;25.77;20.25;;;12.80;63.60;;;;;;5095169;28;20464;-77
2023/04/18 11:15:16;;;;;;;16.10;13.32;;;13.00;63.60;;;;;;5094598;28;20016;-79
2023/04/18 11:17:42;;;;;;;14.73;11.70;;;13.20;62.30;;;;;;5094624;28;20026;-79
2023/04/18 11:20:13;;;;;;;13.02;10.85;;;13.50;60.80;;;;;;5094709;28;20024;-81
2023/04/18 11:22:55;;;;;;;12.75;10.52;;;13.80;59.70;;;;;;5094606;28;20031;-82
2023/04/18 11:25:33;;;;;;;13.70;10.73;;;14.10;59.90;;;;;;5094488;28;20168;-79
2023/04/18 11:28:01;;;;;;;12.55;10.55;;;14.40;57.60;;;;;;5079594;28;20017;-78
2023/04/18 11:30:34;;;;;;;12.70;10.38;;;14.60;56.00;;;;;;5081622;28;20036;-78
2023/04/18 11:33:04;;;;;;;10.93;9.10;;;14.80;56.00;;;;;;5084556;28;20052;-80
2023/04/18 11:35:30;;;;;;;11.68;9.85;;;15.00;54.30;;;;;;5084298;28;20526;-78
2023/04/18 11:37:55;;;;;;;12.82;10.05;;;14.90;54.20;;;;;;5078953;28;20103;-79
2023/04/18 11:40:21;;;;;;;11.77;9.55;;;15.10;54.20;;;;;;5081661;28;20024;-78
2023/04/18 11:42:47;;;;;;;11.57;9.40;;;15.10;52.90;;;;;;5073577;28;20109;-79
2023/04/18 11:45:14;;;;;;;13.05;9.65;;;15.10;53.60;;;;;;5073957;28;20020;-79
2023/04/18 11:47:41;;;;;;;12.10;9.80;;;15.10;53.50;;;;;;5074022;28;20028;-79
2023/04/18 11:50:08;;;;;;;13.70;10.30;;;14.90;53.00;;;;;;5074391;28;20109;-79
2023/04/18 11:52:35;;;;;;;11.75;9.57;;;14.70;53.40;;;;;;5073160;28;20182;-79
2023/04/18 11:55:20;;;;;;;29.98;20.20;;;14.50;53.00;;;;;;5074656;28;20021;-79
2023/04/18 11:57:54;;;;;;;12.02;9.27;;;14.20;54.00;;;;;;5074628;28;20020;-79
2023/04/18 12:00:36;;;;;;;12.68;9.43;;;14.10;54.70;;;;;;5089383;28;20032;-78
2023/04/18 12:03:21;;;;;;;13.65;10.18;;;14.10;54.70;;;;;;5090193;28;20027;-78
2023/04/18 12:06:04;;;;;;;9.73;7.83;;;14.20;54.90;;;;;;5090098;28;20028;-79
2023/04/18 12:08:31;;;;;;;13.52;9.27;;;14.40;53.70;;;;;;5091939;28;20338;-78
2023/04/18 12:10:57;;;;;;;9.88;8.15;;;14.50;53.20;;;;;;5082206;28;20028;-79
2023/04/18 12:13:27;;;;;;;10.02;7.88;;;14.40;53.30;;;;;;5073607;28;20045;-79
2023/04/18 12:15:54;;;;;;;9.63;8.27;;;14.30;53.80;;;;;;5073523;28;20050;-79
2023/04/18 12:18:23;;;;;;;9.73;8.50;;;14.20;54.20;;;;;;5073586;28;20024;-79
2023/04/18 12:20:52;;;;;;;9.65;7.88;;;14.20;54.40;;;;;;5072959;28;20035;-78
2023/04/18 12:23:44;;;;;;;9.48;7.53;;;14.10;54.00;;;;;;5072963;28;20047;-79
2023/04/18 12:26:21;;;;;;;10.15;7.90;;;14.20;54.00;;;;;;5053631;28;20131;-78
2023/04/18 12:28:50;;;;;;;9.43;7.53;;;14.20;53.50;;;;;;5072517;28;20516;-79
2023/04/18 12:31:17;;;;;;;11.98;8.18;;;14.30;53.50;;;;;;5072217;28;20477;-78
2023/04/18 12:33:51;;;;;;;9.13;8.13;;;14.30;52.40;;;;;;5073524;28;20530;-80
2023/04/18 12:36:19;;;;;;;11.07;7.78;;;14.30;53.30;;;;;;5072163;28;20044;-81